sensor_id;sensor_type;location;lat;lon;timestamp;temperature;humidity
13093;DHT22;6612;49.568;11.000;2022-12-24T00:01:36;14.20;81.30
13093;DHT22;6612;49.568;11.000;2022-12-24T00:04:05;14.20;81.30
13093;DHT22;6612;49.568;11.000;2022-12-24T00:06:32;14.20;81.00
13093;DHT22;6612;49.568;11.000;2022-12-24T00:08:59;14.20;81.20
13093;DHT22;6612;49.568;11.000;2022-12-24T00:11:26;14.20;81.30
13093;DHT22;6612;49.568;11.000;2022-12-24T00:13:53;14.30;82.30
13093;DHT22;6612;49.568;11.000;2022-12-24T00:16:19;14.30;81.80
13093;DHT22;6612;49.568;11.000;2022-12-24T00:18:46;14.30;82.00
13093;DHT22;6612;49.568;11.000;2022-12-24T00:21:15;14.30;82.20
13093;DHT22;6612;49.568;11.000;2022-12-24T00:23:42;14.30;82.00
13093;DHT22;6612;49.568;11.000;2022-12-24T00:26:09;14.30;82.20
13093;DHT22;6612;49.568;11.000;2022-12-24T00:28:36;14.40;82.20
13093;DHT22;6612;49.568;11.000;2022-12-24T00:31:07;14.40;82.20
13093;DHT22;6612;49.568;11.000;2022-12-24T00:33:34;14.50;81.80
13093;DHT22;6612;49.568;11.000;2022-12-24T00:36:01;14.50;82.10
13093;DHT22;6612;49.568;11.000;2022-12-24T00:38:29;14.40;81.80
13093;DHT22;6612;49.568;11.000;2022-12-24T00:40:58;14.50;81.40
13093;DHT22;6612;49.568;11.000;2022-12-24T00:43:26;14.50;81.30
13093;DHT22;6612;49.568;11.000;2022-12-24T00:45:52;14.50;81.40
13093;DHT22;6612;49.568;11.000;2022-12-24T00:48:19;14.50;81.40
13093;DHT22;6612;49.568;11.000;2022-12-24T00:50:47;14.50;81.40
13093;DHT22;6612;49.568;11.000;2022-12-24T00:53:15;14.50;81.40
13093;DHT22;6612;49.568;11.000;2022-12-24T00:55:43;14.50;81.40
13093;DHT22;6612;49.568;11.000;2022-12-24T00:58:10;14.50;81.30
13093;DHT22;6612;49.568;11.000;2022-12-24T01:00:37;14.60;81.70
13093;DHT22;6612;49.568;11.000;2022-12-24T01:03:04;14.50;81.60
13093;DHT22;6612;49.568;11.000;2022-12-24T01:05:31;14.50;81.60
13093;DHT22;6612;49.568;11.000;2022-12-24T01:07:58;14.60;81.70
13093;DHT22;6612;49.568;11.000;2022-12-24T01:10:24;14.60;81.60
13093;DHT22;6612;49.568;11.000;2022-12-24T01:12:52;14.60;81.40
13093;DHT22;6612;49.568;11.000;2022-12-24T01:15:19;14.60;81.00
13093;DHT22;6612;49.568;11.000;2022-12-24T01:17:46;14.60;81.10
13093;DHT22;6612;49.568;11.000;2022-12-24T01:20:15;14.60;80.80
13093;DHT22;6612;49.568;11.000;2022-12-24T01:22:42;14.60;80.40
13093;DHT22;6612;49.568;11.000;2022-12-24T01:25:09;14.60;80.40
13093;DHT22;6612;49.568;11.000;2022-12-24T01:27:36;14.60;80.30
13093;DHT22;6612;49.568;11.000;2022-12-24T01:30:07;14.60;80.10
13093;DHT22;6612;49.568;11.000;2022-12-24T01:32:34;14.60;79.30
13093;DHT22;6612;49.568;11.000;2022-12-24T01:35:01;14.60;79.40
13093;DHT22;6612;49.568;11.000;2022-12-24T01:37:28;14.50;78.80
13093;DHT22;6612;49.568;11.000;2022-12-24T01:39:55;14.50;78.30
13093;DHT22;6612;49.568;11.000;2022-12-24T01:42:44;14.50;77.90
13093;DHT22;6612;49.568;11.000;2022-12-24T01:45:43;14.40;77.80
13093;DHT22;6612;49.568;11.000;2022-12-24T01:48:19;14.40;75.80
13093;DHT22;6612;49.568;11.000;2022-12-24T01:50:49;14.30;76.10
13093;DHT22;6612;49.568;11.000;2022-12-24T01:53:16;14.20;76.10
13093;DHT22;6612;49.568;11.000;2022-12-24T01:55:45;14.10;76.00
13093;DHT22;6612;49.568;11.000;2022-12-24T01:58:14;14.10;75.80
13093;DHT22;6612;49.568;11.000;2022-12-24T02:00:43;14.00;75.60
13093;DHT22;6612;49.568;11.000;2022-12-24T02:03:10;13.90;75.40
13093;DHT22;6612;49.568;11.000;2022-12-24T02:05:43;13.90;75.70
13093;DHT22;6612;49.568;11.000;2022-12-24T02:08:12;13.80;75.20
13093;DHT22;6612;49.568;11.000;2022-12-24T02:10:40;13.70;75.40
13093;DHT22;6612;49.568;11.000;2022-12-24T02:13:07;13.70;75.50
13093;DHT22;6612;49.568;11.000;2022-12-24T02:15:43;13.60;75.40
13093;DHT22;6612;49.568;11.000;2022-12-24T02:18:20;13.60;75.80
13093;DHT22;6612;49.568;11.000;2022-12-24T02:24:25;13.40;74.30
13093;DHT22;6612;49.568;11.000;2022-12-24T02:27:24;13.40;74.40
13093;DHT22;6612;49.568;11.000;2022-12-24T02:30:02;13.30;74.50
13093;DHT22;6612;49.568;11.000;2022-12-24T02:32:34;13.30;75.30
13093;DHT22;6612;49.568;11.000;2022-12-24T02:35:07;13.20;75.70
13093;DHT22;6612;49.568;11.000;2022-12-24T02:37:37;13.20;75.90
13093;DHT22;6612;49.568;11.000;2022-12-24T02:40:09;13.20;76.90
13093;DHT22;6612;49.568;11.000;2022-12-24T02:42:40;13.20;75.90
13093;DHT22;6612;49.568;11.000;2022-12-24T02:45:11;13.20;76.00
13093;DHT22;6612;49.568;11.000;2022-12-24T02:47:40;13.10;75.90
13093;DHT22;6612;49.568;11.000;2022-12-24T02:50:11;13.10;76.00
13093;DHT22;6612;49.568;11.000;2022-12-24T02:52:39;13.10;75.90
13093;DHT22;6612;49.568;11.000;2022-12-24T02:55:11;13.10;75.90
13093;DHT22;6612;49.568;11.000;2022-12-24T02:57:54;13.00;75.60
13093;DHT22;6612;49.568;11.000;2022-12-24T03:00:25;13.00;75.10
13093;DHT22;6612;49.568;11.000;2022-12-24T03:03:16;13.00;75.40
13093;DHT22;6612;49.568;11.000;2022-12-24T03:05:48;12.90;74.70
13093;DHT22;6612;49.568;11.000;2022-12-24T03:08:27;12.90;75.40
13093;DHT22;6612;49.568;11.000;2022-12-24T03:11:02;12.90;75.20
13093;DHT22;6612;49.568;11.000;2022-12-24T03:13:30;12.90;76.10
13093;DHT22;6612;49.568;11.000;2022-12-24T03:15:59;12.80;76.40
13093;DHT22;6612;49.568;11.000;2022-12-24T03:18:29;12.80;76.30
13093;DHT22;6612;49.568;11.000;2022-12-24T03:21:00;12.80;75.10
13093;DHT22;6612;49.568;11.000;2022-12-24T03:23:31;12.80;75.70
13093;DHT22;6612;49.568;11.000;2022-12-24T03:26:00;12.70;76.00
13093;DHT22;6612;49.568;11.000;2022-12-24T03:28:28;12.70;76.00
13093;DHT22;6612;49.568;11.000;2022-12-24T03:30:55;12.70;75.60
13093;DHT22;6612;49.568;11.000;2022-12-24T03:33:23;12.70;76.30
13093;DHT22;6612;49.568;11.000;2022-12-24T03:35:50;12.70;76.30
13093;DHT22;6612;49.568;11.000;2022-12-24T03:38:17;12.70;76.90
13093;DHT22;6612;49.568;11.000;2022-12-24T03:40:44;12.70;77.20
13093;DHT22;6612;49.568;11.000;2022-12-24T03:43:11;12.70;77.40
13093;DHT22;6612;49.568;11.000;2022-12-24T03:45:38;12.70;77.50
13093;DHT22;6612;49.568;11.000;2022-12-24T03:48:05;12.70;77.60
13093;DHT22;6612;49.568;11.000;2022-12-24T03:50:33;12.70;77.70
13093;DHT22;6612;49.568;11.000;2022-12-24T03:53:00;12.80;77.80
13093;DHT22;6612;49.568;11.000;2022-12-24T03:55:27;12.80;78.10
13093;DHT22;6612;49.568;11.000;2022-12-24T03:57:54;12.80;78.20
13093;DHT22;6612;49.568;11.000;2022-12-24T04:00:21;12.80;78.40
13093;DHT22;6612;49.568;11.000;2022-12-24T04:02:48;12.80;78.20
13093;DHT22;6612;49.568;11.000;2022-12-24T04:05:17;12.90;78.00
13093;DHT22;6612;49.568;11.000;2022-12-24T04:07:46;12.90;77.50
13093;DHT22;6612;49.568;11.000;2022-12-24T04:10:14;12.90;77.20
13093;DHT22;6612;49.568;11.000;2022-12-24T04:12:42;12.90;77.00
13093;DHT22;6612;49.568;11.000;2022-12-24T04:15:09;12.90;76.90
13093;DHT22;6612;49.568;11.000;2022-12-24T04:17:36;12.90;76.80
13093;DHT22;6612;49.568;11.000;2022-12-24T04:20:04;12.80;76.70
13093;DHT22;6612;49.568;11.000;2022-12-24T04:22:31;12.80;76.60
13093;DHT22;6612;49.568;11.000;2022-12-24T04:24:59;12.80;77.50
13093;DHT22;6612;49.568;11.000;2022-12-24T04:27:26;12.80;76.70
13093;DHT22;6612;49.568;11.000;2022-12-24T04:29:53;12.80;77.20
13093;DHT22;6612;49.568;11.000;2022-12-24T04:32:20;12.80;77.50
13093;DHT22;6612;49.568;11.000;2022-12-24T04:34:47;12.80;77.90
13093;DHT22;6612;49.568;11.000;2022-12-24T04:37:14;12.80;78.00
13093;DHT22;6612;49.568;11.000;2022-12-24T04:39:41;12.90;78.20
13093;DHT22;6612;49.568;11.000;2022-12-24T04:42:09;12.90;78.40
13093;DHT22;6612;49.568;11.000;2022-12-24T04:44:36;12.90;78.10
13093;DHT22;6612;49.568;11.000;2022-12-24T04:47:03;13.00;78.50
13093;DHT22;6612;49.568;11.000;2022-12-24T04:49:30;13.00;78.60
13093;DHT22;6612;49.568;11.000;2022-12-24T04:51:57;13.00;78.60
13093;DHT22;6612;49.568;11.000;2022-12-24T04:54:24;13.10;78.70
13093;DHT22;6612;49.568;11.000;2022-12-24T04:56:51;13.10;78.60
13093;DHT22;6612;49.568;11.000;2022-12-24T04:59:19;13.10;78.40
13093;DHT22;6612;49.568;11.000;2022-12-24T05:01:46;13.10;77.90
13093;DHT22;6612;49.568;11.000;2022-12-24T05:04:13;13.20;78.20
13093;DHT22;6612;49.568;11.000;2022-12-24T05:06:40;13.20;78.20
13093;DHT22;6612;49.568;11.000;2022-12-24T05:09:07;13.20;78.10
13093;DHT22;6612;49.568;11.000;2022-12-24T05:11:34;13.20;78.00
13093;DHT22;6612;49.568;11.000;2022-12-24T05:14:04;13.20;78.10
13093;DHT22;6612;49.568;11.000;2022-12-24T05:16:32;13.30;78.30
13093;DHT22;6612;49.568;11.000;2022-12-24T05:18:59;13.30;77.80
13093;DHT22;6612;49.568;11.000;2022-12-24T05:21:26;13.30;78.00
13093;DHT22;6612;49.568;11.000;2022-12-24T05:23:53;13.30;78.00
13093;DHT22;6612;49.568;11.000;2022-12-24T05:26:39;13.30;78.00
13093;DHT22;6612;49.568;11.000;2022-12-24T05:29:08;13.30;77.70
13093;DHT22;6612;49.568;11.000;2022-12-24T05:31:38;13.40;78.00
13093;DHT22;6612;49.568;11.000;2022-12-24T05:34:06;13.40;77.90
13093;DHT22;6612;49.568;11.000;2022-12-24T05:36:33;13.40;78.20
13093;DHT22;6612;49.568;11.000;2022-12-24T05:39:00;13.40;78.20
13093;DHT22;6612;49.568;11.000;2022-12-24T05:41:27;13.40;78.10
13093;DHT22;6612;49.568;11.000;2022-12-24T05:43:54;13.40;78.00
13093;DHT22;6612;49.568;11.000;2022-12-24T05:46:22;13.40;77.90
13093;DHT22;6612;49.568;11.000;2022-12-24T05:48:52;13.40;77.50
13093;DHT22;6612;49.568;11.000;2022-12-24T05:51:20;13.40;77.30
13093;DHT22;6612;49.568;11.000;2022-12-24T05:53:48;13.40;77.40
13093;DHT22;6612;49.568;11.000;2022-12-24T05:56:17;13.40;78.10
13093;DHT22;6612;49.568;11.000;2022-12-24T05:58:45;13.40;77.30
13093;DHT22;6612;49.568;11.000;2022-12-24T06:01:13;13.40;77.40
13093;DHT22;6612;49.568;11.000;2022-12-24T06:03:40;13.40;77.40
13093;DHT22;6612;49.568;11.000;2022-12-24T06:06:10;13.40;77.30
13093;DHT22;6612;49.568;11.000;2022-12-24T06:08:38;13.40;76.90
13093;DHT22;6612;49.568;11.000;2022-12-24T06:11:08;13.50;75.70
13093;DHT22;6612;49.568;11.000;2022-12-24T06:13:36;13.40;76.90
13093;DHT22;6612;49.568;11.000;2022-12-24T06:16:05;13.40;77.30
13093;DHT22;6612;49.568;11.000;2022-12-24T06:18:34;13.40;77.40
13093;DHT22;6612;49.568;11.000;2022-12-24T06:21:01;13.40;76.50
13093;DHT22;6612;49.568;11.000;2022-12-24T06:23:32;13.40;77.70
13093;DHT22;6612;49.568;11.000;2022-12-24T06:26:00;13.40;78.30
13093;DHT22;6612;49.568;11.000;2022-12-24T06:28:28;13.40;77.80
13093;DHT22;6612;49.568;11.000;2022-12-24T06:30:55;13.40;77.30
13093;DHT22;6612;49.568;11.000;2022-12-24T06:33:22;13.40;78.10
13093;DHT22;6612;49.568;11.000;2022-12-24T06:35:49;13.40;78.10
13093;DHT22;6612;49.568;11.000;2022-12-24T06:38:16;13.40;78.10
13093;DHT22;6612;49.568;11.000;2022-12-24T06:40:45;13.50;78.10
13093;DHT22;6612;49.568;11.000;2022-12-24T06:43:14;13.40;77.70
13093;DHT22;6612;49.568;11.000;2022-12-24T06:45:44;13.50;77.80
13093;DHT22;6612;49.568;11.000;2022-12-24T06:48:12;13.50;77.50
13093;DHT22;6612;49.568;11.000;2022-12-24T06:50:39;13.50;77.90
13093;DHT22;6612;49.568;11.000;2022-12-24T06:53:06;13.50;77.90
13093;DHT22;6612;49.568;11.000;2022-12-24T06:55:33;13.60;78.10
13093;DHT22;6612;49.568;11.000;2022-12-24T06:58:02;13.60;78.10
13093;DHT22;6612;49.568;11.000;2022-12-24T07:00:29;13.60;77.90
13093;DHT22;6612;49.568;11.000;2022-12-24T07:02:56;13.60;78.00
13093;DHT22;6612;49.568;11.000;2022-12-24T07:05:23;13.60;78.20
13093;DHT22;6612;49.568;11.000;2022-12-24T07:07:50;13.60;78.20
13093;DHT22;6612;49.568;11.000;2022-12-24T07:10:18;13.60;78.20
13093;DHT22;6612;49.568;11.000;2022-12-24T07:12:45;13.60;78.00
13093;DHT22;6612;49.568;11.000;2022-12-24T07:15:14;13.60;78.10
13093;DHT22;6612;49.568;11.000;2022-12-24T07:17:42;13.60;77.90
13093;DHT22;6612;49.568;11.000;2022-12-24T07:20:12;13.60;78.10
13093;DHT22;6612;49.568;11.000;2022-12-24T07:22:39;13.60;77.90
13093;DHT22;6612;49.568;11.000;2022-12-24T07:25:07;13.60;77.90
13093;DHT22;6612;49.568;11.000;2022-12-24T07:27:35;13.60;77.80
13093;DHT22;6612;49.568;11.000;2022-12-24T07:30:02;13.60;77.70
13093;DHT22;6612;49.568;11.000;2022-12-24T07:32:31;13.60;77.80
13093;DHT22;6612;49.568;11.000;2022-12-24T07:34:58;13.60;77.50
13093;DHT22;6612;49.568;11.000;2022-12-24T07:37:25;13.60;77.70
13093;DHT22;6612;49.568;11.000;2022-12-24T07:39:52;13.60;77.80
13093;DHT22;6612;49.568;11.000;2022-12-24T07:42:19;13.60;77.80
13093;DHT22;6612;49.568;11.000;2022-12-24T07:44:46;13.60;78.10
13093;DHT22;6612;49.568;11.000;2022-12-24T07:47:13;13.60;78.50
13093;DHT22;6612;49.568;11.000;2022-12-24T07:49:41;13.60;78.80
13093;DHT22;6612;49.568;11.000;2022-12-24T07:52:08;13.60;78.50
13093;DHT22;6612;49.568;11.000;2022-12-24T07:54:35;13.60;78.80
13093;DHT22;6612;49.568;11.000;2022-12-24T07:57:02;13.60;78.80
13093;DHT22;6612;49.568;11.000;2022-12-24T07:59:29;13.70;78.90
13093;DHT22;6612;49.568;11.000;2022-12-24T08:01:56;13.70;79.30
13093;DHT22;6612;49.568;11.000;2022-12-24T08:04:23;13.70;79.80
13093;DHT22;6612;49.568;11.000;2022-12-24T08:06:52;13.80;80.30
13093;DHT22;6612;49.568;11.000;2022-12-24T08:09:18;13.90;80.50
13093;DHT22;6612;49.568;11.000;2022-12-24T08:11:45;13.90;80.70
13093;DHT22;6612;49.568;11.000;2022-12-24T08:14:13;13.90;80.60
13093;DHT22;6612;49.568;11.000;2022-12-24T08:16:40;14.00;80.50
13093;DHT22;6612;49.568;11.000;2022-12-24T08:19:07;14.10;80.60
13093;DHT22;6612;49.568;11.000;2022-12-24T08:21:34;14.10;80.60
13093;DHT22;6612;49.568;11.000;2022-12-24T08:24:03;14.20;80.60
13093;DHT22;6612;49.568;11.000;2022-12-24T08:26:30;14.20;80.30
13093;DHT22;6612;49.568;11.000;2022-12-24T08:28:57;14.30;80.50
13093;DHT22;6612;49.568;11.000;2022-12-24T08:31:24;14.40;80.20
13093;DHT22;6612;49.568;11.000;2022-12-24T08:34:01;14.40;80.10
13093;DHT22;6612;49.568;11.000;2022-12-24T08:36:36;14.40;80.00
13093;DHT22;6612;49.568;11.000;2022-12-24T08:39:05;14.50;79.00
13093;DHT22;6612;49.568;11.000;2022-12-24T08:41:33;14.50;79.30
13093;DHT22;6612;49.568;11.000;2022-12-24T08:44:00;14.50;79.30
13093;DHT22;6612;49.568;11.000;2022-12-24T08:46:27;14.60;79.30
13093;DHT22;6612;49.568;11.000;2022-12-24T08:48:54;14.60;79.40
13093;DHT22;6612;49.568;11.000;2022-12-24T08:51:21;14.60;79.60
13093;DHT22;6612;49.568;11.000;2022-12-24T08:53:48;14.70;79.90
13093;DHT22;6612;49.568;11.000;2022-12-24T08:56:16;14.70;79.70
13093;DHT22;6612;49.568;11.000;2022-12-24T08:58:43;14.80;79.40
13093;DHT22;6612;49.568;11.000;2022-12-24T09:01:13;14.80;79.60
13093;DHT22;6612;49.568;11.000;2022-12-24T09:06:08;14.90;78.90
13093;DHT22;6612;49.568;11.000;2022-12-24T09:11:04;14.90;78.00
13093;DHT22;6612;49.568;11.000;2022-12-24T09:13:33;14.90;78.70
13093;DHT22;6612;49.568;11.000;2022-12-24T09:16:00;14.90;78.50
13093;DHT22;6612;49.568;11.000;2022-12-24T09:18:27;15.00;79.00
13093;DHT22;6612;49.568;11.000;2022-12-24T09:20:59;15.10;78.60
13093;DHT22;6612;49.568;11.000;2022-12-24T09:23:26;15.00;79.20
13093;DHT22;6612;49.568;11.000;2022-12-24T09:25:53;15.10;79.20
13093;DHT22;6612;49.568;11.000;2022-12-24T09:28:20;15.10;79.30
13093;DHT22;6612;49.568;11.000;2022-12-24T09:30:56;15.10;79.30
13093;DHT22;6612;49.568;11.000;2022-12-24T09:33:24;15.20;78.20
13093;DHT22;6612;49.568;11.000;2022-12-24T09:35:51;15.20;79.30
13093;DHT22;6612;49.568;11.000;2022-12-24T09:38:18;15.20;79.10
13093;DHT22;6612;49.568;11.000;2022-12-24T09:40:45;15.30;79.20
13093;DHT22;6612;49.568;11.000;2022-12-24T09:43:16;15.40;79.10
13093;DHT22;6612;49.568;11.000;2022-12-24T09:45:49;15.40;78.50
13093;DHT22;6612;49.568;11.000;2022-12-24T09:48:21;15.40;77.50
13093;DHT22;6612;49.568;11.000;2022-12-24T09:50:51;15.40;77.40
13093;DHT22;6612;49.568;11.000;2022-12-24T09:53:23;15.40;77.40
13093;DHT22;6612;49.568;11.000;2022-12-24T09:55:56;15.40;77.10
13093;DHT22;6612;49.568;11.000;2022-12-24T09:58:27;15.40;77.00
13093;DHT22;6612;49.568;11.000;2022-12-24T10:00:56;15.40;77.00
13093;DHT22;6612;49.568;11.000;2022-12-24T10:03:25;15.40;77.60
13093;DHT22;6612;49.568;11.000;2022-12-24T10:06:00;15.40;77.90
13093;DHT22;6612;49.568;11.000;2022-12-24T10:08:33;15.40;77.20
13093;DHT22;6612;49.568;11.000;2022-12-24T10:11:06;15.40;77.70
13093;DHT22;6612;49.568;11.000;2022-12-24T10:13:47;15.50;77.40
13093;DHT22;6612;49.568;11.000;2022-12-24T10:16:21;15.50;77.10
13093;DHT22;6612;49.568;11.000;2022-12-24T10:18:57;15.50;77.70
13093;DHT22;6612;49.568;11.000;2022-12-24T10:21:35;15.60;77.50
13093;DHT22;6612;49.568;11.000;2022-12-24T10:24:06;15.60;77.40
13093;DHT22;6612;49.568;11.000;2022-12-24T10:26:39;15.60;77.70
13093;DHT22;6612;49.568;11.000;2022-12-24T10:29:13;15.60;77.80
13093;DHT22;6612;49.568;11.000;2022-12-24T10:31:49;15.70;77.50
13093;DHT22;6612;49.568;11.000;2022-12-24T10:34:22;15.70;76.90
13093;DHT22;6612;49.568;11.000;2022-12-24T10:36:49;15.70;77.20
13093;DHT22;6612;49.568;11.000;2022-12-24T10:39:19;15.70;77.70
13093;DHT22;6612;49.568;11.000;2022-12-24T10:41:48;15.80;77.30
13093;DHT22;6612;49.568;11.000;2022-12-24T10:44:18;15.80;77.30
13093;DHT22;6612;49.568;11.000;2022-12-24T10:46:47;15.80;76.80
13093;DHT22;6612;49.568;11.000;2022-12-24T10:49:16;15.80;77.00
13093;DHT22;6612;49.568;11.000;2022-12-24T10:51:48;15.70;77.10
13093;DHT22;6612;49.568;11.000;2022-12-24T10:54:19;15.80;77.70
13093;DHT22;6612;49.568;11.000;2022-12-24T10:56:56;15.70;78.60
13093;DHT22;6612;49.568;11.000;2022-12-24T10:59:26;15.90;79.00
13093;DHT22;6612;49.568;11.000;2022-12-24T11:01:54;16.10;79.90
13093;DHT22;6612;49.568;11.000;2022-12-24T11:04:23;16.20;79.70
13093;DHT22;6612;49.568;11.000;2022-12-24T11:06:54;16.20;79.20
13093;DHT22;6612;49.568;11.000;2022-12-24T11:09:22;16.30;78.90
13093;DHT22;6612;49.568;11.000;2022-12-24T11:11:50;16.30;78.60
13093;DHT22;6612;49.568;11.000;2022-12-24T11:14:19;16.40;78.40
13093;DHT22;6612;49.568;11.000;2022-12-24T11:16:49;16.40;77.20
13093;DHT22;6612;49.568;11.000;2022-12-24T11:19:19;16.40;77.10
13093;DHT22;6612;49.568;11.000;2022-12-24T11:21:47;16.40;76.90
13093;DHT22;6612;49.568;11.000;2022-12-24T11:24:24;16.40;77.00
13093;DHT22;6612;49.568;11.000;2022-12-24T11:26:52;16.40;75.80
13093;DHT22;6612;49.568;11.000;2022-12-24T11:29:20;16.50;76.90
13093;DHT22;6612;49.568;11.000;2022-12-24T11:31:48;16.40;76.50
13093;DHT22;6612;49.568;11.000;2022-12-24T11:34:27;16.40;76.70
13093;DHT22;6612;49.568;11.000;2022-12-24T11:37:07;16.50;76.60
13093;DHT22;6612;49.568;11.000;2022-12-24T11:39:40;16.50;75.60
13093;DHT22;6612;49.568;11.000;2022-12-24T11:42:22;16.50;76.10
13093;DHT22;6612;49.568;11.000;2022-12-24T11:44:51;16.60;75.70
13093;DHT22;6612;49.568;11.000;2022-12-24T11:47:31;16.60;77.20
13093;DHT22;6612;49.568;11.000;2022-12-24T11:50:22;16.60;75.30
13093;DHT22;6612;49.568;11.000;2022-12-24T11:52:54;16.60;73.50
13093;DHT22;6612;49.568;11.000;2022-12-24T11:55:32;16.60;75.20
13093;DHT22;6612;49.568;11.000;2022-12-24T11:58:10;16.60;74.50
13093;DHT22;6612;49.568;11.000;2022-12-24T12:00:40;16.60;74.80
13093;DHT22;6612;49.568;11.000;2022-12-24T12:03:22;16.50;75.20
13093;DHT22;6612;49.568;11.000;2022-12-24T12:05:54;16.60;74.00
13093;DHT22;6612;49.568;11.000;2022-12-24T12:08:21;16.60;75.60
13093;DHT22;6612;49.568;11.000;2022-12-24T12:10:51;16.50;75.70
13093;DHT22;6612;49.568;11.000;2022-12-24T12:13:22;16.50;74.90
13093;DHT22;6612;49.568;11.000;2022-12-24T12:16:06;16.50;74.70
13093;DHT22;6612;49.568;11.000;2022-12-24T12:18:39;16.60;74.00
13093;DHT22;6612;49.568;11.000;2022-12-24T12:21:10;16.50;75.50
13093;DHT22;6612;49.568;11.000;2022-12-24T12:23:45;16.50;74.30
13093;DHT22;6612;49.568;11.000;2022-12-24T12:26:20;16.50;74.30
13093;DHT22;6612;49.568;11.000;2022-12-24T12:28:50;16.50;74.10
13093;DHT22;6612;49.568;11.000;2022-12-24T12:31:24;16.50;75.00
13093;DHT22;6612;49.568;11.000;2022-12-24T12:33:56;16.50;75.20
13093;DHT22;6612;49.568;11.000;2022-12-24T12:36:28;16.60;75.70
13093;DHT22;6612;49.568;11.000;2022-12-24T12:38:55;16.60;75.50
13093;DHT22;6612;49.568;11.000;2022-12-24T12:41:38;16.60;76.40
13093;DHT22;6612;49.568;11.000;2022-12-24T12:44:31;16.70;75.00
13093;DHT22;6612;49.568;11.000;2022-12-24T12:47:13;16.70;74.30
13093;DHT22;6612;49.568;11.000;2022-12-24T12:49:51;16.80;73.70
13093;DHT22;6612;49.568;11.000;2022-12-24T12:52:24;16.80;74.20
13093;DHT22;6612;49.568;11.000;2022-12-24T12:55:05;16.80;73.80
13093;DHT22;6612;49.568;11.000;2022-12-24T12:57:38;16.80;72.70
13093;DHT22;6612;49.568;11.000;2022-12-24T13:00:07;16.70;73.10
13093;DHT22;6612;49.568;11.000;2022-12-24T13:09:22;16.70;71.90
13093;DHT22;6612;49.568;11.000;2022-12-24T13:12:10;16.70;73.10
13093;DHT22;6612;49.568;11.000;2022-12-24T13:14:54;16.70;72.80
13093;DHT22;6612;49.568;11.000;2022-12-24T13:17:53;16.70;72.80
13093;DHT22;6612;49.568;11.000;2022-12-24T13:20:28;16.60;71.80
13093;DHT22;6612;49.568;11.000;2022-12-24T13:22:57;16.60;73.60
13093;DHT22;6612;49.568;11.000;2022-12-24T13:25:30;16.60;73.50
13093;DHT22;6612;49.568;11.000;2022-12-24T13:28:16;16.60;72.70
13093;DHT22;6612;49.568;11.000;2022-12-24T13:30:45;16.50;70.90
13093;DHT22;6612;49.568;11.000;2022-12-24T13:33:13;16.40;72.00
13093;DHT22;6612;49.568;11.000;2022-12-24T13:36:00;16.40;72.20
13093;DHT22;6612;49.568;11.000;2022-12-24T13:38:41;16.30;72.50
13093;DHT22;6612;49.568;11.000;2022-12-24T13:44:23;16.30;71.30
13093;DHT22;6612;49.568;11.000;2022-12-24T13:47:03;16.30;73.30
13093;DHT22;6612;49.568;11.000;2022-12-24T13:49:34;16.30;71.70
13093;DHT22;6612;49.568;11.000;2022-12-24T13:52:16;16.30;72.30
13093;DHT22;6612;49.568;11.000;2022-12-24T13:54:47;16.20;70.80
13093;DHT22;6612;49.568;11.000;2022-12-24T13:57:30;16.20;71.70
13093;DHT22;6612;49.568;11.000;2022-12-24T14:00:00;16.10;70.40
13093;DHT22;6612;49.568;11.000;2022-12-24T14:02:33;16.10;71.80
13093;DHT22;6612;49.568;11.000;2022-12-24T14:05:04;16.00;70.50
13093;DHT22;6612;49.568;11.000;2022-12-24T14:07:33;15.90;70.80
13093;DHT22;6612;49.568;11.000;2022-12-24T14:10:02;15.80;70.90
13093;DHT22;6612;49.568;11.000;2022-12-24T14:12:48;15.70;70.90
13093;DHT22;6612;49.568;11.000;2022-12-24T14:18:30;15.50;69.00
13093;DHT22;6612;49.568;11.000;2022-12-24T14:20:59;15.40;69.80
13093;DHT22;6612;49.568;11.000;2022-12-24T14:23:48;15.30;70.40
13093;DHT22;6612;49.568;11.000;2022-12-24T14:26:19;15.30;70.00
13093;DHT22;6612;49.568;11.000;2022-12-24T14:28:53;15.20;70.40
13093;DHT22;6612;49.568;11.000;2022-12-24T14:31:21;15.10;69.90
13093;DHT22;6612;49.568;11.000;2022-12-24T14:34:04;15.00;70.50
13093;DHT22;6612;49.568;11.000;2022-12-24T14:36:32;14.90;69.30
13093;DHT22;6612;49.568;11.000;2022-12-24T14:39:00;14.80;70.50
13093;DHT22;6612;49.568;11.000;2022-12-24T14:41:35;14.80;70.60
13093;DHT22;6612;49.568;11.000;2022-12-24T14:44:14;14.70;70.20
13093;DHT22;6612;49.568;11.000;2022-12-24T14:46:47;14.60;70.30
13093;DHT22;6612;49.568;11.000;2022-12-24T14:49:27;14.60;70.40
13093;DHT22;6612;49.568;11.000;2022-12-24T14:52:05;14.50;69.90
13093;DHT22;6612;49.568;11.000;2022-12-24T14:54:37;14.40;69.80
13093;DHT22;6612;49.568;11.000;2022-12-24T14:57:12;14.40;70.50
13093;DHT22;6612;49.568;11.000;2022-12-24T14:59:42;14.30;70.20
13093;DHT22;6612;49.568;11.000;2022-12-24T15:02:36;14.20;70.70
13093;DHT22;6612;49.568;11.000;2022-12-24T15:05:16;14.20;70.30
13093;DHT22;6612;49.568;11.000;2022-12-24T15:07:46;14.10;70.30
13093;DHT22;6612;49.568;11.000;2022-12-24T15:10:24;14.10;70.90
13093;DHT22;6612;49.568;11.000;2022-12-24T15:12:53;14.00;70.20
13093;DHT22;6612;49.568;11.000;2022-12-24T15:15:22;13.90;70.80
13093;DHT22;6612;49.568;11.000;2022-12-24T15:17:49;13.90;70.90
13093;DHT22;6612;49.568;11.000;2022-12-24T15:20:20;13.80;70.90
13093;DHT22;6612;49.568;11.000;2022-12-24T15:22:50;13.80;70.90
13093;DHT22;6612;49.568;11.000;2022-12-24T15:25:20;13.70;71.10
13093;DHT22;6612;49.568;11.000;2022-12-24T15:27:48;13.70;71.50
13093;DHT22;6612;49.568;11.000;2022-12-24T15:30:17;13.70;72.70
13093;DHT22;6612;49.568;11.000;2022-12-24T15:32:46;13.60;72.10
13093;DHT22;6612;49.568;11.000;2022-12-24T15:35:31;13.60;73.30
13093;DHT22;6612;49.568;11.000;2022-12-24T15:37:59;13.60;71.80
13093;DHT22;6612;49.568;11.000;2022-12-24T15:40:27;13.60;72.40
13093;DHT22;6612;49.568;11.000;2022-12-24T15:42:54;13.60;72.10
13093;DHT22;6612;49.568;11.000;2022-12-24T15:45:23;13.60;71.80
13093;DHT22;6612;49.568;11.000;2022-12-24T15:47:52;13.50;71.40
13093;DHT22;6612;49.568;11.000;2022-12-24T15:50:24;13.50;71.30
13093;DHT22;6612;49.568;11.000;2022-12-24T15:52:55;13.50;71.20
13093;DHT22;6612;49.568;11.000;2022-12-24T15:55:25;13.40;71.40
13093;DHT22;6612;49.568;11.000;2022-12-24T15:57:52;13.40;71.70
13093;DHT22;6612;49.568;11.000;2022-12-24T16:00:20;13.30;72.00
13093;DHT22;6612;49.568;11.000;2022-12-24T16:02:48;13.30;72.00
13093;DHT22;6612;49.568;11.000;2022-12-24T16:05:30;13.20;72.00
13093;DHT22;6612;49.568;11.000;2022-12-24T16:08:28;13.20;71.40
13093;DHT22;6612;49.568;11.000;2022-12-24T16:11:09;13.20;71.00
13093;DHT22;6612;49.568;11.000;2022-12-24T16:13:38;13.20;71.00